Hub


Voltar

 INFORMAÇÕES METEOROLÓGICAS

METAR FOR CZST


ADDS - METARS form results

(2019 UTC 17 January 2019)
Data provider http://aviationweather.gov/metar/data/
 
METAR text: CZST 172000Z 00000KT 15SM FEW085 FEW200 SCT220 SCT240 M03/M03 A2961 RMK AC1CI1CI1CS1 SLP030
Conditions at: CZST (STEWART AIRPORT , BC, CA) observed 2000 UTC 17 January 2019
Temperature: -3.0°C (27°F)
Dewpoint: -3.0°C (27°F) [RH = 100%]
Pressure (altimeter): 29.61 inches Hg (1002.8 mb)
[Sea-level pressure: 1003.0 mb]
Winds: calm
Visibility: 15 miles (24 km)
Ceiling: at least 12,000 feet AGL
Clouds: few clouds at 8500 feet AGL
few clouds at 20000 feet AGL
scattered clouds at 22000 feet AGL
scattered clouds at 24000 feet AGL
Weather: no significant weather observed at this time


 MAPA DO AEROPORTO


 INFORMAÇÕES DA PISTA

Pista 18 Tamanho da pista 3900 ft Largura da pista 75 ft
Elevação da pista 0 ft Ranhura da pista 0 ft Proa da pista 194
Pista 36 Tamanho da pista 3900 ft Largura da pista 75 ft
Elevação da pista 0 ft Ranhura da pista 0 ft Proa da pista 14

 FREQUÊNCIAS DO AEROPORTO

Tipo ATF Nome ATF Frequência 123.2 MHZ

 AUXÍLIOS DE NAVEGAÇÃO PRÓXIMOS AO AEROPORTO